Time;durP1;ratioP1;P1;durP2;ratioP2;P2;SDS_P1;SDS_P2;PMS_P1;PMS_P2;Temp;Humidity;BMP_temperature;BMP_pressure;BME280_temperature;BME280_humidity;BME280_pressure;Samples;Min_cycle;Max_cycle;Signal;HPM_P1;HPM_P2
2023/03/05 05:22:33;;;;;;;22.85;6.53;;;;;;;3.31;87.28;100453.06;5089076;28;20409;-73
2023/03/05 05:24:58;;;;;;;21.52;7.68;;;;;;;3.33;87.04;100444.09;5089149;28;20040;-73
2023/03/05 05:27:24;;;;;;;21.60;6.30;;;;;;;3.33;87.25;100440.63;5088754;28;20063;-73
2023/03/05 05:29:49;;;;;;;23.33;7.90;;;;;;;3.37;87.17;100445.50;5087759;28;20109;-73
2023/03/05 05:32:16;;;;;;;17.42;7.30;;;;;;;3.37;86.87;100439.41;5088944;28;20071;-72
2023/03/05 05:34:42;;;;;;;25.27;7.55;;;;;;;3.37;86.32;100434.97;5088919;28;20028;-72
2023/03/05 05:37:07;;;;;;;17.02;7.10;;;;;;;3.37;86.26;100444.69;5087235;28;20518;-72
2023/03/05 05:39:34;;;;;;;27.02;8.80;;;;;;;3.40;86.25;100449.72;5088861;28;20414;-73
2023/03/05 05:41:59;;;;;;;23.20;7.07;;;;;;;3.45;86.59;100443.09;5088810;28;20086;-72
2023/03/05 05:44:25;;;;;;;21.55;6.70;;;;;;;3.44;86.28;100449.31;5054017;28;20139;-72
2023/03/05 05:46:50;;;;;;;17.98;7.35;;;;;;;3.43;85.72;100442.38;5088595;28;20033;-72
2023/03/05 05:49:16;;;;;;;26.60;7.70;;;;;;;3.46;86.23;100450.06;5088616;28;20046;-71
2023/03/05 05:51:41;;;;;;;17.33;6.78;;;;;;;3.42;85.66;100442.53;5088629;28;20354;-73
2023/03/05 05:54:07;;;;;;;22.88;6.70;;;;;;;3.43;85.55;100444.19;5088686;28;20115;-73
2023/03/05 05:56:32;;;;;;;27.23;8.77;;;;;;;3.43;84.80;100449.47;5088542;28;20041;-72
2023/03/05 05:58:58;;;;;;;23.48;7.47;;;;;;;3.44;85.26;100451.13;5088171;28;20052;-73
2023/03/05 06:01:27;;;;;;;29.02;8.13;;;;;;;3.42;84.71;100442.53;5088399;28;20055;-73
2023/03/05 06:03:53;;;;;;;23.17;7.38;;;;;;;3.41;84.83;100446.94;5088418;28;20024;-73
2023/03/05 06:06:21;;;;;;;21.73;6.93;;;;;;;3.43;85.49;100442.38;5088249;28;20405;-73
2023/03/05 06:08:47;;;;;;;;;;;;;;;3.40;84.63;100440.00;5088383;28;20033;-73
2023/03/05 06:11:13;;;;;;;24.45;6.85;;;;;;;3.38;85.43;100441.06;5088342;28;19957;-71
2023/03/05 06:13:38;;;;;;;23.23;7.68;;;;;;;3.37;85.43;100447.31;5088258;28;20032;-72
2023/03/05 06:16:09;;;;;;;27.48;6.55;;;;;;;3.38;85.53;100443.72;5088092;28;20040;-72
2023/03/05 06:18:35;;;;;;;14.40;6.22;;;;;;;3.33;86.40;100440.63;5087910;28;20119;-72
2023/03/05 06:21:03;;;;;;;18.23;7.35;;;;;;;3.40;86.38;100444.44;5087903;28;20150;-72
2023/03/05 06:23:28;;;;;;;19.50;7.55;;;;;;;3.35;86.40;100438.69;5088069;28;20044;-72
2023/03/05 06:25:58;;;;;;;25.65;8.35;;;;;;;3.35;85.96;100430.81;5087935;28;20044;-73
2023/03/05 06:28:23;;;;;;;19.83;6.93;;;;;;;3.43;86.16;100438.91;5087624;28;20043;-73
2023/03/05 06:30:49;;;;;;;24.33;7.55;;;;;;;3.42;86.20;100440.72;5087822;28;20036;-73
2023/03/05 06:33:14;;;;;;;21.40;6.18;;;;;;;3.33;86.67;100427.47;5076762;28;20040;-73
2023/03/05 06:35:40;;;;;;;19.15;7.60;;;;;;;3.44;85.42;100436.16;5074201;28;20032;-72
2023/03/05 06:38:06;;;;;;;25.40;7.00;;;;;;;3.43;86.70;100439.75;5073960;28;20370;-73
2023/03/05 06:40:32;;;;;;;21.88;7.43;;;;;;;3.44;86.78;100436.16;5074168;28;20037;-72
2023/03/05 06:42:57;;;;;;;19.67;8.48;;;;;;;3.46;86.63;100436.06;5069094;28;20040;-64
2023/03/05 06:45:23;;;;;;;21.05;7.28;;;;;;;3.46;85.96;100434.25;5054128;28;20111;-66
2023/03/05 06:47:48;;;;;;;32.58;7.43;;;;;;;3.50;86.89;100433.03;5053779;28;20247;-66
2023/03/05 06:50:14;;;;;;;22.60;7.95;;;;;;;3.52;87.35;100436.41;5054127;28;20074;-66
2023/03/05 06:52:39;;;;;;;21.02;6.28;;;;;;;3.53;86.91;100429.34;5054069;28;20037;-68
2023/03/05 06:55:06;;;;;;;22.60;7.70;;;;;;;3.55;86.44;100437.94;5053932;28;20407;-66
2023/03/05 06:57:32;;;;;;;13.68;5.72;;;;;;;3.53;87.33;100434.59;5052292;28;20387;-66
2023/03/05 06:59:57;;;;;;;28.20;7.65;;;;;;;3.55;86.48;100437.94;5052952;28;20053;-67
2023/03/05 07:02:23;;;;;;;19.80;7.03;;;;;;;3.58;87.03;100434.22;5073895;28;20043;-66
2023/03/05 07:04:48;;;;;;;26.70;7.57;;;;;;;3.61;86.13;100433.97;5073778;28;20038;-66
2023/03/05 07:07:13;;;;;;;31.58;8.65;;;;;;;3.60;86.29;100424.41;5073421;28;20607;-66
2023/03/05 07:09:41;;;;;;;23.33;7.93;;;;;;;3.62;86.26;100422.47;5073853;28;20025;-66
2023/03/05 07:12:10;;;;;;;22.08;7.20;;;;;;;3.65;86.18;100419.56;5073634;28;20087;-66
2023/03/05 07:14:37;;;;;;;31.08;9.65;;;;;;;3.64;85.19;100420.53;5073648;28;20024;-67
2023/03/05 07:17:05;;;;;;;21.75;6.75;;;;;;;3.70;85.34;100426.16;5073330;28;20033;-66
2023/03/05 07:19:30;;;;;;;18.98;6.65;;;;;;;3.68;86.28;100417.53;5073447;28;20122;-66
2023/03/05 07:21:56;;;;;;;29.70;7.97;;;;;;;3.69;86.88;100421.84;5073434;28;20033;-66
2023/03/05 07:24:23;;;;;;;22.67;7.72;;;;;;;3.72;85.96;100423.41;5073460;28;20047;-65
2023/03/05 07:26:48;;;;;;;22.45;7.03;;;;;;;3.71;86.14;100421.72;5073259;28;20108;-65
2023/03/05 07:29:14;;;;;;;27.05;8.45;;;;;;;3.74;86.88;100419.69;5073036;28;20394;-64
2023/03/05 07:31:39;;;;;;;18.67;7.38;;;;;;;3.73;86.32;100414.53;5073213;28;20041;-64
2023/03/05 07:34:05;;;;;;;26.88;7.88;;;;;;;3.78;86.15;100415.84;5073277;28;20043;-66
2023/03/05 07:36:31;;;;;;;21.92;8.20;;;;;;;3.84;86.60;100408.38;5073221;28;20036;-65
2023/03/05 07:38:56;;;;;;;20.35;8.32;;;;;;;3.86;85.55;100415.22;5072913;28;20044;-65
2023/03/05 07:41:22;;;;;;;21.20;7.85;;;;;;;3.89;85.36;100409.69;5073101;28;20036;-65
2023/03/05 07:43:50;;;;;;;28.17;8.73;;;;;;;3.95;83.99;100414.44;5072338;28;20040;-65
2023/03/05 07:46:18;;;;;;;23.58;8.52;;;;;;;3.98;84.29;100419.47;5072735;28;20507;-65
2023/03/05 07:48:44;;;;;;;27.65;8.02;;;;;;;4.00;84.42;100419.34;5072424;28;20044;-66
2023/03/05 07:51:16;;;;;;;19.92;7.55;;;;;;;4.07;84.67;100418.69;5072812;28;20043;-66
2023/03/05 07:53:42;;;;;;;35.58;9.85;;;;;;;4.06;84.19;100419.66;5072947;28;20512;-66
2023/03/05 07:56:08;;;;;;;24.38;8.63;;;;;;;4.09;82.70;100418.56;5072728;28;20032;-65
2023/03/05 07:58:34;;;;;;;22.58;8.27;;;;;;;4.10;83.12;100417.59;5072516;28;20094;-65
2023/03/05 08:00:59;;;;;;;21.45;7.85;;;;;;;4.06;83.71;100416.19;5074237;28;20024;-66
2023/03/05 08:03:25;;;;;;;26.05;8.95;;;;;;;4.07;82.44;100417.88;5072340;28;20541;-65
2023/03/05 08:05:50;;;;;;;30.83;8.68;;;;;;;4.08;83.16;100414.25;5072399;28;20045;-66
2023/03/05 08:08:16;;;;;;;23.55;8.63;;;;;;;4.06;83.60;100405.66;5072134;28;20033;-65
2023/03/05 08:10:41;;;;;;;23.77;9.18;;;;;;;4.15;83.45;100410.16;5072467;28;20036;-66
2023/03/05 08:13:06;;;;;;;12.43;7.18;;;;;;;4.14;84.00;100407.66;5071069;28;20037;-64
2023/03/05 08:15:32;;;;;;;23.10;7.85;;;;;;;4.15;84.25;100398.78;5071204;28;20036;-64
2023/03/05 08:17:58;;;;;;;26.15;9.38;;;;;;;4.15;83.78;100394.34;5070702;28;20081;-67
2023/03/05 08:20:23;;;;;;;26.10;9.00;;;;;;;4.23;83.45;100391.03;5072266;28;20568;-65
2023/03/05 08:22:49;;;;;;;24.08;9.00;;;;;;;4.21;83.79;100395.63;5071110;28;20036;-65
2023/03/05 08:25:14;;;;;;;20.90;7.80;;;;;;;4.23;83.05;100388.41;5072161;28;20044;-66
2023/03/05 08:27:45;;;;;;;24.35;8.65;;;;;;;4.24;84.40;100400.66;5071942;28;20032;-63
2023/03/05 08:30:14;;;;;;;21.42;8.82;;;;;;;4.31;83.35;100393.91;5072119;28;20095;-65
2023/03/05 08:32:40;;;;;;;24.33;8.68;;;;;;;4.30;84.58;100394.84;5071918;28;20045;-66
2023/03/05 08:35:05;;;;;;;21.48;7.40;;;;;;;4.26;83.15;100377.63;5070640;28;20027;-70
2023/03/05 08:37:31;;;;;;;28.52;8.93;;;;;;;4.27;83.08;100384.56;5071069;28;20097;-69
2023/03/05 08:39:57;;;;;;;20.10;8.85;;;;;;;4.36;83.88;100392.53;5083997;28;20039;-69
2023/03/05 08:42:23;;;;;;;23.48;7.45;;;;;;;4.34;83.19;100385.72;5090822;28;20032;-70
2023/03/05 08:44:48;;;;;;;22.55;8.13;;;;;;;4.38;83.19;100392.41;5092227;28;20107;-69
2023/03/05 08:47:13;;;;;;;22.42;8.32;;;;;;;4.43;83.94;100390.19;5089352;28;20400;-67
2023/03/05 08:49:39;;;;;;;21.38;7.93;;;;;;;4.50;82.90;100388.75;5092126;28;20036;-68
2023/03/05 08:52:04;;;;;;;25.80;9.63;;;;;;;4.59;82.72;100387.94;5091952;28;20457;-67
2023/03/05 08:54:30;;;;;;;22.65;8.07;;;;;;;4.64;82.33;100390.19;5092106;28;20046;-67
2023/03/05 08:56:55;;;;;;;20.58;8.77;;;;;;;4.69;83.49;100381.84;5090462;28;20039;-68
2023/03/05 08:59:21;;;;;;;23.45;8.00;;;;;;;4.74;81.41;100384.94;5091814;28;20082;-68
2023/03/05 09:01:46;;;;;;;25.23;8.27;;;;;;;4.72;80.36;100379.81;5091985;28;20067;-67
2023/03/05 09:04:12;;;;;;;24.85;9.23;;;;;;;4.77;80.72;100374.13;5092053;28;20400;-68
2023/03/05 09:06:39;;;;;;;25.40;8.75;;;;;;;4.82;81.04;100377.19;5091969;28;20056;-69
2023/03/05 09:09:08;;;;;;;27.42;8.85;;;;;;;4.85;81.85;100376.94;5091605;28;20048;-68
2023/03/05 09:11:35;;;;;;;23.90;7.90;;;;;;;4.89;80.49;100383.63;5090570;28;20062;-68
2023/03/05 09:14:02;;;;;;;19.65;7.20;;;;;;;4.88;80.72;100376.66;5090644;28;20126;-67
2023/03/05 09:16:27;;;;;;;22.48;8.02;;;;;;;4.95;80.14;100379.59;5091674;28;20036;-68
2023/03/05 09:18:53;;;;;;;27.02;7.75;;;;;;;4.94;81.74;100375.28;5091601;28;20044;-66
2023/03/05 09:21:18;;;;;;;19.98;7.93;;;;;;;4.99;81.20;100367.81;5091634;28;20031;-67
2023/03/05 09:23:45;;;;;;;18.13;6.80;;;;;;;5.00;81.51;100369.47;5091672;28;20116;-68
2023/03/05 09:26:14;;;;;;;22.15;9.13;;;;;;;5.02;80.99;100364.88;5091586;28;20119;-68
2023/03/05 09:28:40;;;;;;;23.20;8.65;;;;;;;5.03;81.09;100367.41;5091901;28;20433;-67
2023/03/05 09:31:08;;;;;;;30.48;8.50;;;;;;;5.02;80.59;100368.41;5091467;28;20032;-69
2023/03/05 09:33:35;;;;;;;18.83;7.07;;;;;;;5.08;80.21;100362.53;5090428;28;20048;-68
2023/03/05 09:36:01;;;;;;;21.30;8.80;;;;;;;5.04;80.93;100352.41;5091451;28;20115;-68
2023/03/05 09:38:28;;;;;;;23.35;7.82;;;;;;;5.05;81.37;100347.00;5091361;28;20376;-68
2023/03/05 09:41:06;;;;;;;21.08;8.43;;;;;;;5.12;80.91;100353.41;5090419;28;20400;-67
2023/03/05 09:43:53;;;;;;;16.50;6.72;;;;;;;5.13;80.38;100354.22;5091615;28;20123;-66
2023/03/05 09:46:28;;;;;;;29.50;8.68;;;;;;;5.16;81.32;100353.97;5091456;28;20119;-67
2023/03/05 09:49:07;;;;;;;27.10;8.73;;;;;;;5.21;81.58;100354.38;5091419;28;20385;-66
2023/03/05 09:51:37;;;;;;;19.30;6.47;;;;;;;5.23;80.93;100355.09;5091566;28;20129;-67
2023/03/05 09:54:11;;;;;;;18.55;8.25;;;;;;;5.21;80.92;100353.53;5091357;28;20507;-68
2023/03/05 09:56:44;;;;;;;18.58;7.28;;;;;;;5.28;80.67;100354.66;5091395;28;20032;-67
2023/03/05 09:59:24;;;;;;;21.77;8.20;;;;;;;5.32;80.56;100348.16;5091094;28;20472;-69
2023/03/05 10:01:52;;;;;;;23.33;7.93;;;;;;;5.30;80.79;100353.56;5091205;28;20020;-68
2023/03/05 10:04:40;;;;;;;19.95;8.50;;;;;;;5.22;80.45;100349.97;5091379;28;20039;-68
2023/03/05 10:07:18;;;;;;;19.63;7.50;;;;;;;5.26;81.20;100341.59;5091232;28;20382;-68
2023/03/05 10:09:59;;;;;;;24.42;8.40;;;;;;;5.20;79.04;100339.50;5095226;28;20032;-69
2023/03/05 10:12:52;;;;;;;18.20;6.72;;;;;;;5.23;79.47;100348.97;5095063;28;20040;-67
2023/03/05 10:16:07;;;;;;;20.10;7.55;;;;;;;5.26;80.06;100335.50;5093055;28;20047;-68
2023/03/05 10:18:59;;;;;;;18.10;6.65;;;;;;;5.24;81.49;100340.09;5010193;28;20542;-67
2023/03/05 10:21:40;;;;;;;20.10;7.70;;;;;;;5.33;80.26;100333.97;5093455;28;20400;-67
2023/03/05 10:24:36;;;;;;;18.77;6.90;;;;;;;5.37;80.67;100338.84;5094842;28;20040;-68
2023/03/05 10:27:18;;;;;;;16.25;7.32;;;;;;;5.39;78.90;100333.41;5094693;28;20129;-68
2023/03/05 10:30:00;;;;;;;21.48;8.25;;;;;;;5.35;79.63;100332.03;5094612;28;20040;-68
2023/03/05 10:33:02;;;;;;;14.18;6.65;;;;;;;5.35;81.00;100332.88;5094560;28;20043;-65
2023/03/05 10:35:35;;;;;;;13.82;6.35;;;;;;;5.41;80.79;100326.19;5094673;28;20047;-66
2023/03/05 10:38:13;;;;;;;20.55;7.85;;;;;;;5.45;80.03;100320.50;5094262;28;20492;-68
2023/03/05 10:40:45;;;;;;;18.85;7.43;;;;;;;5.40;82.85;100316.59;5094447;28;20028;-67
2023/03/05 10:43:23;;;;;;;15.40;6.93;;;;;;;5.45;80.94;100317.00;5094444;28;20051;-66
2023/03/05 10:45:50;;;;;;;;;;;;;;;5.46;80.83;100302.81;5094708;28;20036;-67
2023/03/05 10:48:52;;;;;;;17.77;5.32;;;;;;;5.54;80.40;100307.41;5093913;28;19981;-65
2023/03/05 10:51:45;;;;;;;14.93;6.60;;;;;;;5.60;79.72;100302.41;5087428;28;20071;-67
2023/03/05 10:54:24;;;;;;;17.33;6.95;;;;;;;5.52;79.82;100298.81;5094249;28;20389;-67
2023/03/05 10:56:49;;;;;;;13.10;7.03;;;;;;;5.51;78.96;100295.31;5094101;28;20040;-67
2023/03/05 10:59:15;;;;;;;16.75;5.55;;;;;;;5.61;78.65;100301.47;5093687;28;20101;-66
2023/03/05 11:01:40;;;;;;;14.00;6.53;;;;;;;5.56;78.42;100293.09;5094113;28;20036;-66
2023/03/05 11:04:25;;;;;;;17.83;5.68;;;;;;;5.58;77.91;100288.50;5094221;28;20073;-66
2023/03/05 11:06:50;;;;;;;11.52;5.63;;;;;;;5.49;80.75;100292.00;5094029;28;20032;-65
2023/03/05 11:09:31;;;;;;;18.40;6.38;;;;;;;5.47;79.55;100283.34;5093599;28;20039;-66
2023/03/05 11:12:17;;;;;;;17.08;6.20;;;;;;;5.45;80.20;100272.94;5093983;28;20075;-66
2023/03/05 11:14:46;;;;;;;14.40;6.35;;;;;;;5.47;79.80;100271.97;5092809;28;20484;-65
2023/03/05 11:17:31;;;;;;;15.45;6.32;;;;;;;5.50;80.44;100271.69;5093430;28;20028;-66
2023/03/05 11:20:17;;;;;;;16.00;6.13;;;;;;;5.53;79.95;100256.38;5093664;28;20504;-66
2023/03/05 11:23:03;;;;;;;13.93;5.82;;;;;;;5.65;77.67;100260.53;5093488;28;20051;-65
2023/03/05 11:25:29;;;;;;;13.80;5.68;;;;;;;5.69;77.68;100261.09;5093573;28;20035;-66
2023/03/05 11:27:57;;;;;;;15.77;6.57;;;;;;;5.76;78.27;100249.00;5093205;28;20169;-64
2023/03/05 11:30:25;;;;;;;18.25;7.28;;;;;;;5.75;79.75;100260.53;5093599;28;20450;-66
2023/03/05 11:33:07;;;;;;;14.85;7.00;;;;;;;5.79;79.73;100256.63;5093415;28;20035;-67
2023/03/05 11:35:36;;;;;;;16.75;6.50;;;;;;;5.83;76.47;100254.53;5093531;28;20495;-67
2023/03/05 11:38:04;;;;;;;12.77;5.95;;;;;;;5.88;76.36;100245.22;5093222;28;20035;-66
2023/03/05 11:40:34;;;;;;;14.98;6.15;;;;;;;5.83;79.37;100246.59;5093289;28;20043;-66
2023/03/05 11:43:01;;;;;;;17.05;7.03;;;;;;;5.94;76.89;100244.66;5093313;28;20043;-66
2023/03/05 11:45:29;;;;;;;14.70;6.40;;;;;;;5.87;77.38;100245.34;5093466;28;20075;-64
2023/03/05 11:47:56;;;;;;;;;;;;;;;5.93;77.48;100237.72;5093219;28;20126;-65
2023/03/05 11:50:30;;;;;;;12.90;5.75;;;;;;;5.81;79.02;100243.28;5092584;28;19912;-64
2023/03/05 11:53:00;;;;;;;12.27;6.45;;;;;;;5.77;78.81;100241.88;5093392;28;20059;-65
2023/03/05 11:55:33;;;;;;;18.40;8.00;;;;;;;5.71;77.72;100243.28;5093204;28;20036;-64
2023/03/05 11:58:11;;;;;;;14.57;7.22;;;;;;;5.72;78.86;100235.22;5093126;28;20398;-66
2023/03/05 12:00:41;;;;;;;14.48;6.10;;;;;;;5.68;79.40;100239.13;5093394;28;20039;-65
2023/03/05 12:03:13;;;;;;;16.88;6.82;;;;;;;5.68;79.58;100225.91;5093303;28;20051;-67
2023/03/05 12:05:42;;;;;;;21.75;8.70;;;;;;;5.68;79.33;100231.19;5092991;28;20477;-66
2023/03/05 12:08:13;;;;;;;20.45;7.40;;;;;;;5.65;80.79;100231.47;5092951;28;20115;-67
2023/03/05 12:10:38;;;;;;;15.13;6.80;;;;;;;5.57;83.22;100218.13;5074205;28;20048;-66
2023/03/05 12:13:30;;;;;;;18.90;9.13;;;;;;;5.63;81.85;100209.66;5071489;28;20045;-65
2023/03/05 12:16:13;;;;;;;14.30;7.32;;;;;;;5.67;81.97;100208.41;5072744;28;20036;-65
2023/03/05 12:19:09;;;;;;;19.15;7.43;;;;;;;5.74;80.48;100203.38;5072424;28;20119;-67
2023/03/05 12:21:49;;;;;;;18.55;7.18;;;;;;;5.82;81.59;100192.06;5072506;28;20043;-65
2023/03/05 12:24:23;;;;;;;23.00;8.45;;;;;;;5.88;82.62;100194.16;5072648;28;20144;-66
2023/03/05 12:26:52;;;;;;;21.60;7.57;;;;;;;5.91;81.42;100186.78;5066586;28;20094;-65
2023/03/05 12:29:40;;;;;;;21.50;8.48;;;;;;;5.95;79.07;100185.53;5071613;28;20092;-65
2023/03/05 12:32:30;;;;;;;19.38;6.63;;;;;;;5.91;78.74;100172.72;5064190;28;20043;-65
2023/03/05 12:35:00;;;;;;;20.35;7.03;;;;;;;5.90;80.09;100177.16;5069145;28;20044;-65
2023/03/05 12:37:26;;;;;;;13.63;6.53;;;;;;;5.88;79.44;100173.81;5062604;28;20029;-68
2023/03/05 12:40:17;;;;;;;15.02;6.82;;;;;;;5.91;78.60;100162.97;5052486;28;20540;-65
2023/03/05 12:43:24;;;;;;;20.40;6.80;;;;;;;5.84;78.92;100155.75;5051887;28;20059;-66
2023/03/05 12:45:51;;;;;;;12.65;6.05;;;;;;;5.64;81.57;100152.34;5053649;28;20043;-65
2023/03/05 12:48:17;;;;;;;17.85;6.32;;;;;;;5.63;82.60;100154.16;5060257;28;20033;-66
2023/03/05 12:50:43;;;;;;;15.48;6.13;;;;;;;5.78;80.05;100151.03;5062868;28;20094;-67
2023/03/05 12:53:12;;;;;;;18.15;5.93;;;;;;;5.79;79.68;100150.88;5061679;28;20056;-66
2023/03/05 12:55:46;;;;;;;13.55;7.25;;;;;;;5.77;80.64;100141.44;5060853;28;20115;-66
2023/03/05 12:58:18;;;;;;;14.38;5.90;;;;;;;5.77;79.02;100144.09;5061179;28;20444;-66
2023/03/05 13:00:50;;;;;;;17.20;6.78;;;;;;;5.75;79.65;100143.41;5061377;28;20029;-66
2023/03/05 13:03:25;;;;;;;11.85;6.57;;;;;;;5.68;79.23;100136.06;5061046;28;20085;-66
2023/03/05 13:05:53;;;;;;;12.43;5.30;;;;;;;5.70;79.14;100135.91;5061537;28;20044;-65
2023/03/05 13:08:21;;;;;;;15.05;6.28;;;;;;;5.67;78.93;100137.03;5059664;28;20037;-67
2023/03/05 13:11:17;;;;;;;10.82;5.45;;;;;;;5.67;80.32;100129.09;5062238;28;20120;-65
2023/03/05 13:13:46;;;;;;;13.83;5.73;;;;;;;5.73;80.22;100125.84;5057078;28;20044;-67
2023/03/05 13:16:21;;;;;;;16.13;6.15;;;;;;;5.67;79.41;100123.81;5061295;28;20332;-64
2023/03/05 13:18:48;;;;;;;16.73;6.40;;;;;;;5.66;80.85;100124.78;5060064;28;20028;-66
2023/03/05 13:21:17;;;;;;;17.00;6.13;;;;;;;5.71;79.32;100121.72;5059585;28;20033;-65
2023/03/05 13:23:56;;;;;;;12.85;5.10;;;;;;;5.80;79.57;100122.63;5061088;28;20459;-53
2023/03/05 13:26:27;;;;;;;12.80;5.65;;;;;;;5.80;79.55;100117.34;5060775;28;20090;-55
2023/03/05 13:29:20;;;;;;;13.20;6.18;;;;;;;5.86;78.73;100122.06;5060605;28;20029;-56
2023/03/05 13:32:22;;;;;;;11.98;5.45;;;;;;;5.91;78.77;100117.19;5059945;28;20171;-62
2023/03/05 13:34:49;;;;;;;12.95;6.30;;;;;;;5.86;77.78;100114.13;5061815;28;20090;-54
2023/03/05 13:37:24;;;;;;;14.55;5.82;;;;;;;5.83;78.65;100114.44;5060889;28;20036;-55
2023/03/05 13:39:59;;;;;;;13.73;5.55;;;;;;;5.87;77.87;100110.53;5061224;28;20083;-61
2023/03/05 13:42:33;;;;;;;11.52;5.03;;;;;;;5.82;77.96;100100.38;5057207;28;20461;-64
2023/03/05 13:45:05;;;;;;;15.05;6.10;;;;;;;5.88;78.44;100106.91;5064241;28;20064;-64
2023/03/05 13:47:33;;;;;;;13.77;5.68;;;;;;;5.82;77.93;100096.91;5075250;28;20116;-62
2023/03/05 13:50:21;;;;;;;;;;;;;;;5.82;79.32;100099.56;5076044;28;20038;-62
2023/03/05 13:52:46;;;;;;;;;;;;;;;5.81;79.34;100090.78;5075951;28;19917;-65
2023/03/05 13:55:13;;;;;;;9.68;5.07;;;;;;;5.76;78.30;100093.03;5075383;28;20288;-63
2023/03/05 13:57:49;;;;;;;11.63;5.90;;;;;;;5.78;79.13;100087.59;5075125;28;20127;-64
2023/03/05 14:00:35;;;;;;;10.18;5.28;;;;;;;5.78;79.46;100092.88;5075373;28;20052;-61
2023/03/05 14:03:27;;;;;;;16.00;6.20;;;;;;;5.75;79.34;100086.09;5075291;28;20063;-65
2023/03/05 14:05:53;;;;;;;13.98;5.38;;;;;;;5.70;81.05;100089.16;5075308;28;20060;-63
2023/03/05 14:08:24;;;;;;;15.13;6.25;;;;;;;5.74;79.99;100079.16;5074930;28;20139;-64
2023/03/05 14:10:50;;;;;;;17.65;6.55;;;;;;;5.73;80.14;100082.75;5074984;28;20033;-62
2023/03/05 14:13:26;;;;;;;18.50;6.70;;;;;;;5.70;80.85;100073.31;5075170;28;20401;-63
2023/03/05 14:16:26;;;;;;;18.17;6.78;;;;;;;5.72;79.98;100079.28;5074994;28;20036;-64
2023/03/05 14:18:57;;;;;;;19.88;6.68;;;;;;;5.71;80.78;100072.31;5066368;28;20060;-64
2023/03/05 14:21:23;;;;;;;13.60;7.53;;;;;;;5.79;80.55;100070.75;5074839;28;20643;-64
2023/03/05 14:23:53;;;;;;;17.23;6.10;;;;;;;5.79;80.52;100065.47;5074844;28;20701;-63
2023/03/05 14:26:29;;;;;;;14.50;7.07;;;;;;;5.76;80.08;100063.97;5074841;28;20028;-64
2023/03/05 14:29:12;;;;;;;15.52;7.07;;;;;;;5.75;79.57;100061.47;5074478;28;20036;-65
2023/03/05 14:32:01;;;;;;;16.10;7.07;;;;;;;5.72;79.68;100055.47;5074716;28;20039;-64
2023/03/05 14:34:26;;;;;;;16.83;6.28;;;;;;;5.71;79.77;100053.81;5074739;28;20037;-64
2023/03/05 14:36:54;;;;;;;14.15;7.50;;;;;;;5.70;79.87;100052.16;5074597;28;20037;-69
2023/03/05 14:39:25;;;;;;;;;;;;;;;5.69;80.55;100039.94;5074931;28;20029;-64
2023/03/05 14:41:50;;;;;;;16.80;6.60;;;;;;;5.66;80.90;100042.84;5074637;28;19958;-64
2023/03/05 14:44:16;;;;;;;13.98;5.72;;;;;;;5.62;79.41;100038.84;5074645;28;20417;-66
2023/03/05 14:46:46;;;;;;;11.52;5.80;;;;;;;5.61;79.77;100039.84;5074471;28;20510;-65
2023/03/05 14:49:12;;;;;;;16.65;6.53;;;;;;;5.59;79.89;100033.00;5074520;28;20044;-62
2023/03/05 14:51:41;;;;;;;14.40;6.50;;;;;;;5.62;79.70;100027.44;5074431;28;20044;-64
2023/03/05 14:54:15;;;;;;;15.13;6.22;;;;;;;5.56;80.90;100025.41;5073942;28;20046;-65
2023/03/05 14:56:40;;;;;;;14.10;6.53;;;;;;;5.56;79.42;100023.59;5074387;28;20047;-62
2023/03/05 14:59:07;;;;;;;18.30;6.13;;;;;;;5.54;80.10;100014.97;5072790;28;20040;-65
2023/03/05 15:01:33;;;;;;;12.10;5.80;;;;;;;5.52;80.75;100003.69;5074391;28;20107;-63
2023/03/05 15:03:59;;;;;;;14.07;6.05;;;;;;;5.51;80.96;100004.69;5074201;28;20044;-65
2023/03/05 15:06:38;;;;;;;15.07;6.32;;;;;;;5.51;80.55;100003.84;5074109;28;20082;-64
2023/03/05 15:09:06;;;;;;;12.43;6.40;;;;;;;5.58;80.11;100011.03;5069454;28;20052;-64
2023/03/05 15:11:32;;;;;;;18.85;6.40;;;;;;;5.56;80.84;100004.25;5054031;28;20033;-65
2023/03/05 15:13:57;;;;;;;16.05;6.95;;;;;;;5.57;81.34;100004.09;5054097;28;20098;-64
2023/03/05 15:16:22;;;;;;;16.35;7.10;;;;;;;5.53;81.37;99999.25;5052665;28;20045;-65
2023/03/05 15:18:48;;;;;;;17.10;7.30;;;;;;;5.55;80.40;99994.66;5053678;28;20033;-64
2023/03/05 15:21:14;;;;;;;13.10;6.15;;;;;;;5.49;80.69;99985.53;5054045;28;20453;-64
2023/03/05 15:23:40;;;;;;;11.48;6.05;;;;;;;5.50;80.22;99981.91;5053784;28;20037;-65
2023/03/05 15:26:08;;;;;;;19.33;6.57;;;;;;;5.50;80.53;99979.25;5053835;28;20124;-63
2023/03/05 15:28:35;;;;;;;16.27;6.60;;;;;;;5.51;79.74;99985.38;5052610;28;20120;-63
2023/03/05 15:31:02;;;;;;;12.32;6.05;;;;;;;5.52;79.93;99985.22;5052554;28;20041;-62
2023/03/05 15:33:28;;;;;;;13.70;6.75;;;;;;;5.51;80.80;99978.25;5053714;28;20451;-66
2023/03/05 15:35:54;;;;;;;15.00;5.95;;;;;;;5.53;80.47;99978.13;5053600;28;20067;-66
2023/03/05 15:38:19;;;;;;;15.00;6.18;;;;;;;5.48;79.83;99970.66;5053174;28;20033;-65
2023/03/05 15:40:45;;;;;;;13.77;6.90;;;;;;;5.52;79.60;99968.53;5053488;28;20397;-64
2023/03/05 15:43:11;;;;;;;13.98;6.13;;;;;;;5.52;79.39;99957.97;5053516;28;20051;-64
2023/03/05 15:45:37;;;;;;;14.43;6.82;;;;;;;5.50;79.05;99962.56;5053409;28;20127;-63
2023/03/05 15:48:03;;;;;;;14.15;5.55;;;;;;;5.53;78.91;99955.16;5053153;28;20041;-62
2023/03/05 15:50:28;;;;;;;12.25;4.80;;;;;;;5.53;79.20;99952.53;5051979;28;20041;-64
2023/03/05 15:52:54;;;;;;;13.18;5.53;;;;;;;5.54;79.14;99942.78;5053200;28;20114;-66
2023/03/05 15:55:19;;;;;;;18.48;6.18;;;;;;;5.49;79.04;99943.25;5053193;28;20132;-63
2023/03/05 15:57:48;;;;;;;11.40;5.22;;;;;;;5.50;79.08;99938.78;5052924;28;20111;-64
2023/03/05 16:00:15;;;;;;;16.42;6.43;;;;;;;5.47;78.72;99939.91;5053118;28;20037;-64
2023/03/05 16:02:40;;;;;;;15.95;6.38;;;;;;;5.41;78.99;99932.56;5053371;28;20364;-65
2023/03/05 16:05:06;;;;;;;15.10;5.90;;;;;;;5.44;80.53;99929.63;5052227;28;20041;-64
2023/03/05 16:07:35;;;;;;;13.52;5.70;;;;;;;5.45;80.89;99937.41;5052664;28;20644;-63
2023/03/05 16:10:01;;;;;;;16.85;6.72;;;;;;;5.42;80.60;99929.78;5052953;28;20033;-67
2023/03/05 16:12:31;;;;;;;14.70;5.25;;;;;;;5.41;81.04;99919.34;5052821;28;20090;-66
2023/03/05 16:14:56;;;;;;;13.80;6.90;;;;;;;5.43;80.66;99917.41;5052830;28;20065;-66
2023/03/05 16:17:23;;;;;;;13.73;5.20;;;;;;;5.39;80.35;99918.69;5052419;28;20508;-64
2023/03/05 16:19:53;;;;;;;13.63;5.32;;;;;;;5.39;79.98;99916.88;5052452;28;20087;-65
2023/03/05 16:22:18;;;;;;;13.60;5.35;;;;;;;5.39;79.81;99910.75;5052621;28;20029;-64
2023/03/05 16:24:43;;;;;;;14.77;5.15;;;;;;;5.39;80.22;99908.13;5052490;28;20049;-65
2023/03/05 16:27:09;;;;;;;13.48;6.30;;;;;;;5.41;80.38;99901.72;5052461;28;20036;-66
2023/03/05 16:29:35;;;;;;;14.32;6.32;;;;;;;5.35;80.13;99902.31;5052576;28;20047;-66
2023/03/05 16:32:02;;;;;;;9.57;4.78;;;;;;;5.36;80.73;99898.69;5052432;28;20040;-65
2023/03/05 16:34:28;;;;;;;17.58;6.88;;;;;;;5.38;81.65;99899.38;5052521;28;20135;-65
2023/03/05 16:36:54;;;;;;;12.18;5.88;;;;;;;5.30;81.81;99890.53;5052151;28;20501;-69
2023/03/05 16:39:21;;;;;;;15.85;6.05;;;;;;;5.30;81.47;99898.44;5052133;28;20482;-68
2023/03/05 16:41:47;;;;;;;13.43;6.23;;;;;;;5.31;82.35;99900.09;5052451;28;20094;-65
2023/03/05 16:44:12;;;;;;;15.23;5.85;;;;;;;5.27;82.20;99888.16;5052388;28;20394;-65
2023/03/05 16:46:40;;;;;;;13.18;5.60;;;;;;;5.27;82.49;99893.44;5052279;28;20033;-65
2023/03/05 16:49:07;;;;;;;15.73;7.05;;;;;;;5.20;82.89;99884.44;5051843;28;20041;-63
2023/03/05 16:51:33;;;;;;;15.80;5.70;;;;;;;5.21;83.05;99886.94;5052407;28;20033;-63
2023/03/05 16:53:58;;;;;;;13.80;5.30;;;;;;;5.21;83.40;99886.13;5052193;28;20039;-65
2023/03/05 16:56:24;;;;;;;20.75;6.55;;;;;;;5.12;83.62;99875.47;5052209;28;20375;-66
2023/03/05 16:58:49;;;;;;;17.48;6.50;;;;;;;5.18;83.80;99876.69;5051863;28;20163;-62
2023/03/05 17:01:18;;;;;;;13.98;5.88;;;;;;;5.16;84.03;99887.41;5051949;28;20064;-65
2023/03/05 17:03:44;;;;;;;14.82;6.68;;;;;;;5.04;84.06;99863.97;5052063;28;20037;-62
2023/03/05 17:06:12;;;;;;;12.90;6.35;;;;;;;5.13;84.51;99885.03;5052028;28;20033;-65